createdAt,value
2018-12-04T00:01:15.324Z,82.60
2018-12-04T00:03:56.079Z,82.50
2018-12-04T00:06:37.147Z,82.50
2018-12-04T00:09:18.216Z,82.40
2018-12-04T00:11:59.398Z,82.40
2018-12-04T00:14:40.178Z,82.30
2018-12-04T00:17:20.971Z,82.30
2018-12-04T00:20:02.094Z,82.20
2018-12-04T00:22:43.102Z,82.10
2018-12-04T00:25:24.147Z,82.10
2018-12-04T00:28:05.399Z,82.00
2018-12-04T00:30:46.442Z,81.90
2018-12-04T00:33:26.982Z,81.90
2018-12-04T00:36:08.035Z,81.80
2018-12-04T00:38:49.180Z,81.70
2018-12-04T00:41:30.309Z,81.70
2018-12-04T00:44:11.574Z,81.60
2018-12-04T00:46:52.886Z,81.30
2018-12-04T00:49:33.590Z,81.30
2018-12-04T00:52:14.594Z,81.40
2018-12-04T00:54:55.750Z,81.20
2018-12-04T00:57:36.946Z,81.10
2018-12-04T01:00:17.797Z,81.00
2018-12-04T01:02:58.857Z,80.70
2018-12-04T01:05:39.787Z,80.80
2018-12-04T01:08:20.706Z,80.50
2018-12-04T01:11:01.866Z,80.60
2018-12-04T01:13:43.037Z,80.60
2018-12-04T01:16:23.823Z,80.50
2018-12-04T01:19:04.759Z,80.40
2018-12-04T01:21:45.938Z,80.50
2018-12-04T01:24:27.068Z,80.20
2018-12-04T01:27:08.239Z,80.00
2018-12-04T01:29:49.282Z,79.90
2018-12-04T01:32:30.611Z,79.80
2018-12-04T01:41:05.850Z,79.80
2018-12-04T01:43:46.382Z,79.90
2018-12-04T01:46:27.418Z,79.70
2018-12-04T01:49:08.575Z,79.80
2018-12-04T01:51:49.615Z,79.70
2018-12-04T01:54:30.714Z,79.50
2018-12-04T01:57:11.769Z,79.30
2018-12-04T02:02:39.962Z,79.30
2018-12-04T02:05:21.282Z,79.30
2018-12-04T02:08:01.881Z,79.30
2018-12-04T02:10:43.203Z,79.30
2018-12-04T02:22:30.458Z,78.70
2018-12-04T02:25:11.455Z,78.90
2018-12-04T02:27:52.366Z,78.80
2018-12-04T02:30:33.298Z,78.80
2018-12-04T02:33:13.826Z,79.30
2018-12-04T02:35:54.741Z,78.80
2018-12-04T02:38:35.441Z,79.00
2018-12-04T02:41:16.418Z,79.20
2018-12-04T02:43:57.318Z,78.70
2018-12-04T02:46:38.156Z,78.80
2018-12-04T02:49:19.171Z,78.80
2018-12-04T02:52:00.040Z,78.60
2018-12-04T02:54:41.124Z,78.50
2018-12-04T02:57:22.494Z,78.70
2018-12-04T03:00:03.039Z,78.40
2018-12-04T03:02:44.108Z,78.50
2018-12-04T03:05:24.850Z,78.40
2018-12-04T03:08:05.392Z,78.70
2018-12-04T03:10:45.957Z,78.50
2018-12-04T03:13:27.258Z,78.20
2018-12-04T03:16:08.307Z,78.20
2018-12-04T03:18:49.425Z,78.20
2018-12-04T03:21:30.494Z,78.10
2018-12-04T03:24:11.488Z,78.10
2018-12-04T03:26:52.774Z,78.00
2018-12-04T03:29:33.895Z,78.00
2018-12-04T03:32:15.033Z,78.00
2018-12-04T03:34:55.738Z,78.10
2018-12-04T03:37:36.410Z,78.10
2018-12-04T03:40:17.307Z,77.90
2018-12-04T03:42:58.417Z,77.90
2018-12-04T03:45:39.067Z,77.70
2018-12-04T03:48:20.054Z,77.70
2018-12-04T03:51:01.309Z,77.70
2018-12-04T03:53:42.370Z,77.80
2018-12-04T03:56:23.054Z,77.70
2018-12-04T03:59:04.016Z,77.80
2018-12-04T04:01:44.973Z,77.50
2018-12-04T04:04:26.279Z,77.50
2018-12-04T04:07:06.954Z,77.90
2018-12-04T04:09:48.229Z,77.60
2018-12-04T04:12:29.046Z,77.50
2018-12-04T04:15:10.350Z,77.50
2018-12-04T04:17:50.871Z,77.00
2018-12-04T04:20:31.480Z,77.10
2018-12-04T04:23:12.412Z,77.10
2018-12-04T04:25:53.266Z,77.10
2018-12-04T04:28:33.762Z,76.90
2018-12-04T04:31:14.850Z,77.00
2018-12-04T04:33:55.533Z,77.00
2018-12-04T04:36:36.727Z,77.00
2018-12-04T04:39:18.115Z,77.00
2018-12-04T04:41:59.211Z,76.80
2018-12-04T04:44:40.278Z,76.90
2018-12-04T04:47:21.079Z,77.00
2018-12-04T04:50:01.975Z,76.80
2018-12-04T04:52:43.011Z,76.90
2018-12-04T04:55:23.821Z,76.80
2018-12-04T04:58:05.150Z,76.60
2018-12-04T05:00:46.270Z,76.80
2018-12-04T05:03:27.110Z,76.80
2018-12-04T05:06:08.202Z,76.50
2018-12-04T05:09:17.168Z,76.50
2018-12-04T05:11:47.428Z,76.60
2018-12-04T05:14:15.978Z,76.80
2018-12-04T05:16:44.459Z,76.40
2018-12-04T05:19:12.929Z,76.40
2018-12-04T05:21:41.418Z,76.30
2018-12-04T05:24:09.888Z,76.30
2018-12-04T05:26:41.663Z,76.40
2018-12-04T05:29:10.134Z,76.10
2018-12-04T05:31:41.499Z,75.90
2018-12-04T05:34:16.905Z,76.00
2018-12-04T05:36:45.432Z,76.00
2018-12-04T05:39:13.890Z,76.10
2018-12-04T05:41:47.525Z,76.30
2018-12-04T05:44:15.977Z,76.30
2018-12-04T05:46:44.448Z,76.10
2018-12-04T05:49:12.928Z,75.90
2018-12-04T05:51:41.406Z,75.70
2018-12-04T05:54:14.389Z,75.70
2018-12-04T05:56:43.470Z,75.70
2018-12-04T05:59:12.302Z,75.70
2018-12-04T06:01:40.890Z,75.70
2018-12-04T06:04:09.358Z,76.00
2018-12-04T06:06:37.827Z,76.10
2018-12-04T06:09:07.292Z,75.70
2018-12-04T06:11:35.822Z,75.70
2018-12-04T06:14:04.311Z,75.70
2018-12-04T06:16:35.642Z,75.70
2018-12-04T06:19:17.017Z,75.70
2018-12-04T06:21:45.517Z,75.90
2018-12-04T06:24:22.977Z,75.80
2018-12-04T06:26:53.538Z,75.90
2018-12-04T06:29:22.010Z,75.70
2018-12-04T06:31:50.489Z,75.60
2018-12-04T06:34:28.995Z,75.60
2018-12-04T06:36:57.481Z,75.50
2018-12-04T06:39:25.970Z,75.30
2018-12-04T06:41:54.453Z,75.30
2018-12-04T06:44:22.933Z,75.40
2018-12-04T06:46:51.415Z,75.30
2018-12-04T06:49:19.888Z,75.40
2018-12-04T06:51:48.383Z,75.30
2018-12-04T06:54:16.865Z,75.30
2018-12-04T06:56:52.892Z,75.20
2018-12-04T06:59:23.648Z,75.40
2018-12-04T07:01:52.147Z,75.50
2018-12-04T07:04:20.626Z,75.20
2018-12-04T07:06:53.589Z,75.00
2018-12-04T07:09:23.743Z,75.00
2018-12-04T07:11:52.472Z,75.10
2018-12-04T07:14:21.080Z,75.00
2018-12-04T07:16:49.773Z,75.00
2018-12-04T07:19:29.110Z,75.10
2018-12-04T07:21:57.589Z,74.70
2018-12-04T07:24:29.573Z,74.70
2018-12-04T07:26:59.677Z,75.00
2018-12-04T07:29:28.163Z,74.90
2018-12-04T07:31:56.592Z,74.60
2018-12-04T07:34:25.025Z,74.70
2018-12-04T07:36:53.616Z,74.70
2018-12-04T07:39:29.030Z,74.90
2018-12-04T07:42:05.076Z,74.90
2018-12-04T07:44:33.588Z,74.80
2018-12-04T07:47:05.755Z,74.70
2018-12-04T07:49:34.227Z,74.70
2018-12-04T07:52:02.710Z,74.40
2018-12-04T07:54:31.188Z,74.80
2018-12-04T07:56:59.669Z,74.80
2018-12-04T07:59:28.153Z,74.80
2018-12-04T08:01:56.646Z,74.70
2018-12-04T08:04:29.626Z,74.50
2018-12-04T08:06:58.107Z,74.20
2018-12-04T08:09:26.529Z,74.30
2018-12-04T08:11:59.550Z,74.20
2018-12-04T08:14:28.047Z,74.20
2018-12-04T08:16:56.509Z,74.30
2018-12-04T08:19:24.930Z,74.20
2018-12-04T08:21:58.931Z,74.10
2018-12-04T08:24:27.517Z,74.30
2018-12-04T08:26:56.024Z,74.40
2018-12-04T08:29:24.669Z,74.00
2018-12-04T08:31:53.755Z,73.90
2018-12-04T08:34:23.659Z,74.00
2018-12-04T08:36:52.152Z,74.50
2018-12-04T08:39:20.637Z,74.20
2018-12-04T08:41:49.129Z,74.10
2018-12-04T08:44:23.782Z,74.00
2018-12-04T08:46:52.223Z,74.00
2018-12-04T08:49:29.102Z,73.90
2018-12-04T08:51:57.609Z,74.00
2018-12-04T08:54:26.090Z,74.00
2018-12-04T08:56:59.700Z,74.00
2018-12-04T08:59:29.818Z,74.00
2018-12-04T09:01:58.269Z,74.00
2018-12-04T09:04:26.701Z,73.90
2018-12-04T09:06:55.175Z,73.80
2018-12-04T09:09:23.704Z,73.80
2018-12-04T09:11:52.305Z,73.70
2018-12-04T09:14:20.884Z,73.90
2018-12-04T09:16:49.315Z,73.80
2018-12-04T09:19:17.865Z,73.70
2018-12-04T09:21:53.097Z,73.70
2018-12-04T09:24:21.805Z,73.50
2018-12-04T09:27:05.092Z,73.60
2018-12-04T09:29:29.691Z,73.60
2018-12-04T09:31:58.200Z,73.40
2018-12-04T09:34:29.779Z,73.30
2018-12-04T09:37:05.047Z,73.60
2018-12-04T09:39:33.557Z,73.60
2018-12-04T09:42:02.021Z,73.60
2018-12-04T09:44:30.548Z,73.40
2018-12-04T09:46:58.994Z,73.40
2018-12-04T09:49:27.461Z,73.50
2018-12-04T09:51:55.893Z,73.80
2018-12-04T09:54:29.758Z,73.80
2018-12-04T09:56:58.232Z,73.40
2018-12-04T09:59:26.710Z,73.20
2018-12-04T10:01:55.189Z,73.20
2018-12-04T10:04:23.677Z,73.20
2018-12-04T10:06:52.166Z,73.20
2018-12-04T10:09:20.582Z,73.20
2018-12-04T10:11:49.121Z,73.30
2018-12-04T10:14:17.602Z,73.20
2018-12-04T10:16:46.085Z,73.50
2018-12-04T10:19:14.561Z,73.50
2018-12-04T10:21:47.745Z,73.10
2018-12-04T10:24:16.251Z,73.20
2018-12-04T10:26:46.741Z,73.10
2018-12-04T10:29:15.253Z,73.00
2018-12-04T10:31:43.773Z,73.00
2018-12-04T10:34:12.423Z,73.00
2018-12-04T10:36:40.880Z,73.10
2018-12-04T10:39:09.381Z,72.80
2018-12-04T10:41:37.884Z,72.90
2018-12-04T10:44:11.664Z,72.80
2018-12-04T10:46:40.136Z,72.90
2018-12-04T10:49:11.682Z,73.00
2018-12-04T10:51:40.225Z,72.90
2018-12-04T10:54:08.876Z,72.80
2018-12-04T10:56:37.356Z,72.80
2018-12-04T10:59:05.838Z,72.80
2018-12-04T11:01:41.149Z,72.80
2018-12-04T11:04:09.762Z,72.90
2018-12-04T11:06:38.250Z,73.10
2018-12-04T11:09:08.525Z,73.00
2018-12-04T11:11:41.742Z,72.80
2018-12-04T11:14:10.169Z,72.80
2018-12-04T11:16:38.728Z,72.80
2018-12-04T11:19:07.161Z,73.10
2018-12-04T11:21:35.689Z,72.80
2018-12-04T11:24:05.802Z,72.80
2018-12-04T11:26:35.714Z,72.70
2018-12-04T11:29:04.185Z,72.60
2018-12-04T11:31:32.681Z,72.70
2018-12-04T11:34:01.149Z,72.90
2018-12-04T11:36:29.681Z,72.70
2018-12-04T11:38:58.350Z,72.70
2018-12-04T11:41:26.788Z,72.60
2018-12-04T11:43:55.285Z,72.60
2018-12-04T11:46:23.756Z,72.80
2018-12-04T11:48:52.253Z,72.50
2018-12-04T11:51:20.726Z,72.60
2018-12-04T11:53:49.144Z,72.60
2018-12-04T11:56:17.699Z,72.60
2018-12-04T11:58:46.132Z,72.60
2018-12-04T12:01:30.464Z,72.60
2018-12-04T12:03:59.090Z,72.90
2018-12-04T12:06:27.576Z,72.30
2018-12-04T12:08:59.749Z,72.40
2018-12-04T12:11:28.178Z,72.70
2018-12-04T12:13:56.712Z,72.60
2018-12-04T12:16:25.204Z,72.50
2018-12-04T12:18:53.687Z,72.50
2018-12-04T12:21:22.175Z,72.60
2018-12-04T12:23:53.905Z,72.80
2018-12-04T12:26:22.404Z,72.60
2018-12-04T12:28:50.872Z,72.60
2018-12-04T12:31:19.358Z,72.40
2018-12-04T12:33:47.854Z,72.50
2018-12-04T12:36:16.317Z,72.50
2018-12-04T12:38:58.489Z,72.40
2018-12-04T12:41:26.912Z,72.60
2018-12-04T12:46:23.961Z,72.30
2018-12-04T12:48:52.468Z,72.10
2018-12-04T12:51:20.936Z,72.50
2018-12-04T12:53:49.429Z,72.40
2018-12-04T12:56:17.901Z,72.90
2018-12-04T12:58:46.382Z,72.40
2018-12-04T13:01:14.844Z,72.40
2018-12-04T13:03:43.339Z,72.50
2018-12-04T13:06:11.829Z,72.50
2018-12-04T13:08:40.265Z,72.70
2018-12-04T13:11:08.805Z,72.90
2018-12-04T13:16:05.733Z,72.80
2018-12-04T13:18:34.207Z,72.60
2018-12-04T13:21:02.692Z,72.40
2018-12-04T13:23:31.186Z,72.40
2018-12-04T13:25:59.670Z,72.70
2018-12-04T13:28:28.129Z,72.80
2018-12-04T13:30:56.643Z,72.70
2018-12-04T13:33:25.101Z,72.50
2018-12-04T13:35:53.577Z,72.60
2018-12-04T13:38:22.270Z,72.70
2018-12-04T13:40:50.738Z,72.80
2018-12-04T13:43:19.218Z,72.60
2018-12-04T13:45:47.692Z,72.60
2018-12-04T15:17:57.905Z,72.20
2018-12-04T15:20:26.598Z,72.20
2018-12-04T15:22:55.352Z,72.20
2018-12-04T15:25:24.322Z,72.10
2018-12-04T15:27:53.080Z,72.00
2018-12-04T15:30:21.697Z,72.00
2018-12-04T15:32:50.484Z,71.90
2018-12-04T15:35:19.327Z,71.90
2018-12-04T15:37:48.167Z,72.20
2018-12-04T15:40:16.898Z,72.10
2018-12-04T15:42:45.635Z,72.00
2018-12-04T15:45:14.692Z,72.20
2018-12-04T15:47:43.378Z,72.10
2018-12-04T15:50:12.147Z,72.10
2018-12-04T15:52:40.977Z,72.20
2018-12-04T15:55:09.973Z,72.20
2018-12-04T15:57:38.764Z,72.20
2018-12-04T16:00:09.017Z,72.10
2018-12-04T16:02:37.769Z,72.30
2018-12-04T16:05:08.211Z,72.20
2018-12-04T16:07:36.976Z,72.10
2018-12-04T16:10:08.716Z,72.20
2018-12-04T16:12:37.364Z,72.20
2018-12-04T16:15:06.142Z,72.30
2018-12-04T16:17:35.440Z,72.20
2018-12-04T16:20:07.149Z,72.10
2018-12-04T16:22:35.853Z,72.40
2018-12-04T16:25:04.573Z,72.40
2018-12-04T16:27:33.192Z,72.30
2018-12-04T16:30:01.897Z,72.30
2018-12-04T16:32:31.282Z,72.30
2018-12-04T16:34:59.883Z,72.20
2018-12-04T16:37:28.632Z,72.30
2018-12-04T16:39:57.435Z,72.30
2018-12-04T16:42:26.204Z,72.30
2018-12-04T16:44:54.875Z,72.30
2018-12-04T16:47:23.497Z,72.30
2018-12-04T16:49:52.172Z,72.20
2018-12-04T16:52:20.905Z,72.30
2018-12-04T16:54:49.580Z,72.30
2018-12-04T16:57:18.157Z,72.20
2018-12-04T16:59:46.777Z,72.10
2018-12-04T17:02:15.542Z,72.30
2018-12-04T17:04:44.319Z,72.30
2018-12-04T17:07:13.128Z,72.10
2018-12-04T17:09:41.950Z,72.20
2018-12-04T17:12:10.535Z,72.20
2018-12-04T17:14:39.296Z,72.00
2018-12-04T17:17:07.961Z,72.10
2018-12-04T17:19:36.648Z,72.00
2018-12-04T17:22:05.381Z,72.00
2018-12-04T17:24:34.418Z,72.20
2018-12-04T17:27:03.172Z,72.20
2018-12-04T17:29:32.596Z,71.90
2018-12-04T17:32:01.341Z,72.10
2018-12-04T17:34:30.240Z,72.00
2018-12-04T17:36:58.981Z,72.10
2018-12-04T17:41:56.076Z,72.00
2018-12-04T17:44:24.697Z,72.00
2018-12-04T17:46:54.622Z,72.00
2018-12-04T17:49:23.332Z,71.80
2018-12-04T17:51:52.127Z,72.00
2018-12-04T17:54:20.880Z,72.00
2018-12-04T17:56:49.712Z,71.80
2018-12-04T17:59:18.316Z,72.00
2018-12-04T18:01:46.954Z,71.70
2018-12-04T18:04:17.000Z,71.80
2018-12-04T18:06:45.760Z,71.70
2018-12-04T18:09:14.477Z,71.70
2018-12-04T18:11:43.346Z,71.70
2018-12-04T18:16:40.328Z,71.80
2018-12-04T18:19:09.033Z,71.70
2018-12-04T18:21:37.719Z,71.70
2018-12-04T18:24:06.393Z,71.60
2018-12-04T18:26:35.151Z,71.60
2018-12-04T18:29:03.964Z,71.70
2018-12-04T18:31:32.663Z,71.60
2018-12-04T18:34:01.279Z,71.50
2018-12-04T18:36:30.066Z,71.50
2018-12-04T18:38:58.790Z,71.60
2018-12-04T18:41:32.107Z,71.50
2018-12-04T18:43:58.418Z,71.40
2018-12-04T18:46:27.254Z,71.50
2018-12-04T18:48:56.034Z,71.50
2018-12-04T18:51:25.115Z,71.40
2018-12-04T18:53:53.994Z,71.40
2018-12-04T18:56:22.792Z,71.50
2018-12-04T18:58:51.432Z,71.40
2018-12-04T19:01:20.132Z,71.20
2018-12-04T19:03:48.802Z,71.30
2018-12-04T19:06:17.525Z,71.30
2018-12-04T19:08:48.135Z,71.40
2018-12-04T19:11:16.878Z,71.20
2018-12-04T19:13:45.697Z,71.30
2018-12-04T19:16:15.661Z,71.10
2018-12-04T19:18:44.525Z,71.10
2018-12-04T19:23:41.632Z,71.10
2018-12-04T19:26:10.225Z,70.90
2018-12-04T19:28:38.937Z,70.90
2018-12-04T19:31:08.232Z,70.90
2018-12-04T19:33:37.168Z,70.90
2018-12-04T19:36:05.734Z,70.90
2018-12-04T19:38:34.974Z,70.80
2018-12-04T19:41:03.654Z,70.80
2018-12-04T19:43:32.309Z,70.80
2018-12-04T19:46:00.931Z,70.70
2018-12-04T19:48:29.748Z,70.60
2018-12-04T19:50:58.855Z,70.70
2018-12-04T19:53:27.910Z,70.60
2018-12-04T19:55:56.523Z,70.80
2018-12-04T19:58:25.252Z,70.60
2018-12-04T20:00:53.848Z,70.60
2018-12-04T20:03:22.603Z,70.60
2018-12-04T20:05:51.274Z,70.60
2018-12-04T20:09:49.115Z,70.50
2018-12-04T20:12:17.723Z,70.30
2018-12-04T20:14:46.392Z,70.40
2018-12-04T20:17:15.146Z,70.30
2018-12-04T20:19:43.752Z,70.40
2018-12-04T20:22:12.576Z,70.30
2018-12-04T20:24:41.459Z,70.30
2018-12-04T20:27:10.116Z,70.30
2018-12-04T20:29:38.781Z,70.10
2018-12-04T20:32:07.473Z,70.20
2018-12-04T20:34:36.175Z,70.20
2018-12-04T20:37:05.013Z,70.20
2018-12-04T20:39:33.986Z,70.20
2018-12-04T20:42:02.587Z,70.10
2018-12-04T20:44:31.275Z,70.10
2018-12-04T20:46:59.943Z,70.10
2018-12-04T20:49:28.627Z,70.20
2018-12-04T20:51:57.434Z,70.00
2018-12-04T20:54:26.550Z,70.10
2018-12-04T20:56:55.318Z,70.00
2018-12-04T20:59:24.053Z,70.00
2018-12-04T21:01:52.868Z,69.90
2018-12-04T21:04:21.727Z,69.90
2018-12-04T21:06:50.537Z,69.80
2018-12-04T21:09:19.290Z,69.70
2018-12-04T21:11:48.307Z,69.80
2018-12-04T21:14:17.149Z,69.80
2018-12-04T21:16:45.740Z,69.80
2018-12-04T21:19:14.592Z,69.60
2018-12-04T21:21:43.463Z,69.60
2018-12-04T21:24:12.092Z,69.60
2018-12-04T21:26:40.807Z,69.60
2018-12-04T21:30:15.723Z,69.50
2018-12-04T21:32:49.953Z,69.50
2018-12-04T21:35:24.078Z,69.50
2018-12-04T21:37:57.964Z,69.50
2018-12-04T21:40:32.012Z,69.50
2018-12-04T21:43:06.037Z,69.40
2018-12-04T21:48:10.802Z,69.40
2018-12-04T21:50:39.472Z,69.30
2018-12-04T21:53:08.168Z,69.30
2018-12-04T21:55:36.908Z,69.40
2018-12-04T21:58:05.613Z,69.20
2018-12-04T22:00:34.249Z,69.40
2018-12-04T22:03:03.000Z,69.20
2018-12-04T22:05:31.665Z,69.10
2018-12-04T22:08:00.338Z,69.30
2018-12-04T22:10:29.257Z,69.10
2018-12-04T22:12:57.816Z,69.10
2018-12-04T22:15:30.292Z,69.10
2018-12-04T22:17:59.126Z,69.00
2018-12-04T22:20:27.807Z,69.20
2018-12-04T22:22:56.540Z,69.10
2018-12-04T22:25:25.212Z,69.00
2018-12-04T22:27:53.937Z,68.90
2018-12-04T22:30:22.532Z,69.10
2018-12-04T22:32:51.272Z,69.10
2018-12-04T22:35:20.107Z,68.80
2018-12-04T22:37:48.955Z,68.80
2018-12-04T22:40:17.716Z,68.90
2018-12-04T22:42:46.514Z,68.80
2018-12-04T22:45:20.689Z,68.80
2018-12-04T22:47:49.340Z,68.90
2018-12-04T22:50:17.973Z,68.80
2018-12-04T22:52:46.800Z,68.70
2018-12-04T22:55:15.672Z,68.90
2018-12-04T22:57:45.484Z,68.80
2018-12-04T23:00:32.624Z,68.70
2018-12-04T23:03:01.304Z,68.60
2018-12-04T23:05:30.102Z,68.90
2018-12-04T23:07:58.925Z,68.60
2018-12-04T23:10:27.595Z,68.40
2018-12-04T23:12:56.309Z,68.60
2018-12-04T23:15:24.976Z,68.70
2018-12-04T23:17:53.605Z,68.50
2018-12-04T23:20:22.380Z,68.90
2018-12-04T23:22:51.025Z,68.50
2018-12-04T23:25:19.678Z,68.50
2018-12-04T23:27:48.366Z,68.50
2018-12-04T23:30:17.027Z,68.70
2018-12-04T23:32:45.768Z,68.50
2018-12-04T23:35:14.482Z,68.40
2018-12-04T23:37:43.159Z,68.40
2018-12-04T23:40:11.857Z,68.20
2018-12-04T23:42:40.408Z,68.20
2018-12-04T23:45:09.185Z,68.40
2018-12-04T23:47:37.910Z,68.30
2018-12-04T23:50:07.109Z,68.20
2018-12-04T23:52:35.846Z,68.20
2018-12-04T23:55:04.585Z,68.10
2018-12-04T23:57:33.160Z,68.10
